sensor_id;sensor_type;location;lat;lon;timestamp;temperature;humidity
1614;DHT22;800;48.824;9.346;2022-12-07T00:00:43;10.50;59.80
1614;DHT22;800;48.824;9.346;2022-12-07T00:03:09;10.50;59.80
1614;DHT22;800;48.824;9.346;2022-12-07T00:05:34;10.40;59.60
1614;DHT22;800;48.824;9.346;2022-12-07T00:08:00;10.50;59.80
1614;DHT22;800;48.824;9.346;2022-12-07T00:10:25;10.40;59.90
1614;DHT22;800;48.824;9.346;2022-12-07T00:12:51;10.40;59.90
1614;DHT22;800;48.824;9.346;2022-12-07T00:15:17;10.40;60.00
1614;DHT22;800;48.824;9.346;2022-12-07T00:17:42;10.30;60.20
1614;DHT22;800;48.824;9.346;2022-12-07T00:20:08;10.30;60.30
1614;DHT22;800;48.824;9.346;2022-12-07T00:22:34;10.40;60.20
1614;DHT22;800;48.824;9.346;2022-12-07T00:24:59;10.40;60.10
1614;DHT22;800;48.824;9.346;2022-12-07T00:27:25;10.40;60.00
1614;DHT22;800;48.824;9.346;2022-12-07T00:29:52;10.40;59.80
1614;DHT22;800;48.824;9.346;2022-12-07T00:32:17;10.50;59.90
1614;DHT22;800;48.824;9.346;2022-12-07T00:34:43;10.50;59.80
1614;DHT22;800;48.824;9.346;2022-12-07T00:37:08;10.50;59.80
1614;DHT22;800;48.824;9.346;2022-12-07T00:39:34;10.50;59.70
1614;DHT22;800;48.824;9.346;2022-12-07T00:42:00;10.50;59.60
1614;DHT22;800;48.824;9.346;2022-12-07T00:44:25;10.60;59.70
1614;DHT22;800;48.824;9.346;2022-12-07T00:46:51;10.60;59.70
1614;DHT22;800;48.824;9.346;2022-12-07T00:49:16;10.60;59.50
1614;DHT22;800;48.824;9.346;2022-12-07T00:51:42;10.70;59.40
1614;DHT22;800;48.824;9.346;2022-12-07T00:54:07;10.70;59.20
1614;DHT22;800;48.824;9.346;2022-12-07T00:56:33;10.60;59.10
1614;DHT22;800;48.824;9.346;2022-12-07T00:59:01;10.60;59.10
1614;DHT22;800;48.824;9.346;2022-12-07T01:01:31;10.60;58.90
1614;DHT22;800;48.824;9.346;2022-12-07T01:03:56;10.60;59.00
1614;DHT22;800;48.824;9.346;2022-12-07T01:06:24;10.60;59.00
1614;DHT22;800;48.824;9.346;2022-12-07T01:08:50;10.60;59.10
1614;DHT22;800;48.824;9.346;2022-12-07T01:11:19;10.60;59.10
1614;DHT22;800;48.824;9.346;2022-12-07T01:13:45;10.60;59.00
1614;DHT22;800;48.824;9.346;2022-12-07T01:16:15;10.60;58.90
1614;DHT22;800;48.824;9.346;2022-12-07T01:18:42;10.60;58.90
1614;DHT22;800;48.824;9.346;2022-12-07T01:21:25;10.60;58.80
1614;DHT22;800;48.824;9.346;2022-12-07T01:23:51;10.60;58.90
1614;DHT22;800;48.824;9.346;2022-12-07T01:26:20;10.60;58.80
1614;DHT22;800;48.824;9.346;2022-12-07T01:28:47;10.60;58.70
1614;DHT22;800;48.824;9.346;2022-12-07T01:31:18;10.60;58.60
1614;DHT22;800;48.824;9.346;2022-12-07T01:33:47;10.60;58.90
1614;DHT22;800;48.824;9.346;2022-12-07T01:36:14;10.50;59.00
1614;DHT22;800;48.824;9.346;2022-12-07T01:38:41;10.40;59.20
1614;DHT22;800;48.824;9.346;2022-12-07T01:41:07;10.40;59.20
1614;DHT22;800;48.824;9.346;2022-12-07T01:43:33;10.50;59.50
1614;DHT22;800;48.824;9.346;2022-12-07T01:46:01;10.50;59.30
1614;DHT22;800;48.824;9.346;2022-12-07T01:48:30;10.50;59.00
1614;DHT22;800;48.824;9.346;2022-12-07T01:51:02;10.50;59.60
1614;DHT22;800;48.824;9.346;2022-12-07T01:53:30;10.40;59.00
1614;DHT22;800;48.824;9.346;2022-12-07T01:55:56;10.40;59.10
1614;DHT22;800;48.824;9.346;2022-12-07T01:58:23;10.50;59.10
1614;DHT22;800;48.824;9.346;2022-12-07T02:00:49;10.50;59.00
1614;DHT22;800;48.824;9.346;2022-12-07T02:03:29;10.50;58.80
1614;DHT22;800;48.824;9.346;2022-12-07T02:05:55;10.60;58.90
1614;DHT22;800;48.824;9.346;2022-12-07T02:08:22;10.50;58.90
1614;DHT22;800;48.824;9.346;2022-12-07T02:10:47;10.50;59.10
1614;DHT22;800;48.824;9.346;2022-12-07T02:13:16;10.50;59.10
1614;DHT22;800;48.824;9.346;2022-12-07T02:18:25;10.50;59.10
1614;DHT22;800;48.824;9.346;2022-12-07T02:20:57;10.40;59.10
1614;DHT22;800;48.824;9.346;2022-12-07T02:28:34;10.50;58.80
1614;DHT22;800;48.824;9.346;2022-12-07T02:31:05;10.50;58.70
1614;DHT22;800;48.824;9.346;2022-12-07T02:34:00;10.50;58.50
1614;DHT22;800;48.824;9.346;2022-12-07T02:36:27;10.50;58.50
1614;DHT22;800;48.824;9.346;2022-12-07T02:39:06;10.50;58.50
1614;DHT22;800;48.824;9.346;2022-12-07T02:41:44;10.50;58.40
1614;DHT22;800;48.824;9.346;2022-12-07T02:44:14;10.50;58.10
1614;DHT22;800;48.824;9.346;2022-12-07T02:47:05;10.40;58.10
1614;DHT22;800;48.824;9.346;2022-12-07T02:49:31;10.50;58.10
1614;DHT22;800;48.824;9.346;2022-12-07T02:51:57;10.40;57.90
1614;DHT22;800;48.824;9.346;2022-12-07T02:54:23;10.50;57.90
1614;DHT22;800;48.824;9.346;2022-12-07T03:07:58;10.50;57.60
1614;DHT22;800;48.824;9.346;2022-12-07T03:10:34;10.50;57.70
1614;DHT22;800;48.824;9.346;2022-12-07T03:16:02;10.50;57.60
1614;DHT22;800;48.824;9.346;2022-12-07T03:18:35;10.40;57.60
1614;DHT22;800;48.824;9.346;2022-12-07T03:21:06;10.40;57.70
1614;DHT22;800;48.824;9.346;2022-12-07T03:23:36;10.50;57.90
1614;DHT22;800;48.824;9.346;2022-12-07T03:26:03;10.40;57.70
1614;DHT22;800;48.824;9.346;2022-12-07T03:28:36;10.50;57.80
1614;DHT22;800;48.824;9.346;2022-12-07T03:33:44;10.40;57.70
1614;DHT22;800;48.824;9.346;2022-12-07T03:36:35;10.40;57.80
1614;DHT22;800;48.824;9.346;2022-12-07T03:39:41;10.40;57.80
1614;DHT22;800;48.824;9.346;2022-12-07T03:42:00;10.40;57.80
1614;DHT22;800;48.824;9.346;2022-12-07T03:44:28;10.30;57.80
1614;DHT22;800;48.824;9.346;2022-12-07T03:47:00;10.30;57.90
1614;DHT22;800;48.824;9.346;2022-12-07T03:49:42;10.30;57.90
1614;DHT22;800;48.824;9.346;2022-12-07T03:55:11;10.30;57.90
1614;DHT22;800;48.824;9.346;2022-12-07T03:57:38;10.20;57.80
1614;DHT22;800;48.824;9.346;2022-12-07T04:00:07;10.20;57.90
1614;DHT22;800;48.824;9.346;2022-12-07T04:02:33;10.20;58.10
1614;DHT22;800;48.824;9.346;2022-12-07T04:05:00;10.10;58.10
1614;DHT22;800;48.824;9.346;2022-12-07T04:07:26;10.10;58.30
1614;DHT22;800;48.824;9.346;2022-12-07T04:09:51;10.00;58.30
1614;DHT22;800;48.824;9.346;2022-12-07T04:12:17;10.00;58.40
1614;DHT22;800;48.824;9.346;2022-12-07T04:14:43;10.00;58.50
1614;DHT22;800;48.824;9.346;2022-12-07T04:17:09;10.00;58.50
1614;DHT22;800;48.824;9.346;2022-12-07T04:19:34;10.00;58.50
1614;DHT22;800;48.824;9.346;2022-12-07T04:22:01;10.00;58.20
1614;DHT22;800;48.824;9.346;2022-12-07T04:24:27;10.00;58.20
1614;DHT22;800;48.824;9.346;2022-12-07T04:26:54;9.90;58.90
1614;DHT22;800;48.824;9.346;2022-12-07T04:29:20;9.70;59.10
1614;DHT22;800;48.824;9.346;2022-12-07T04:31:46;9.00;60.80
1614;DHT22;800;48.824;9.346;2022-12-07T04:34:12;8.80;62.70
1614;DHT22;800;48.824;9.346;2022-12-07T04:36:39;8.70;62.70
1614;DHT22;800;48.824;9.346;2022-12-07T04:39:06;8.80;62.70
1614;DHT22;800;48.824;9.346;2022-12-07T04:41:32;9.00;62.30
1614;DHT22;800;48.824;9.346;2022-12-07T04:44:03;9.10;61.70
1614;DHT22;800;48.824;9.346;2022-12-07T04:46:30;9.10;61.60
1614;DHT22;800;48.824;9.346;2022-12-07T04:48:56;9.20;61.30
1614;DHT22;800;48.824;9.346;2022-12-07T04:51:24;9.20;61.00
1614;DHT22;800;48.824;9.346;2022-12-07T04:53:51;9.30;61.00
1614;DHT22;800;48.824;9.346;2022-12-07T04:56:17;9.30;60.60
1614;DHT22;800;48.824;9.346;2022-12-07T04:58:44;9.40;60.50
1614;DHT22;800;48.824;9.346;2022-12-07T05:01:11;9.10;60.70
1614;DHT22;800;48.824;9.346;2022-12-07T05:03:37;8.60;61.80
1614;DHT22;800;48.824;9.346;2022-12-07T05:06:03;8.70;62.90
1614;DHT22;800;48.824;9.346;2022-12-07T05:08:28;8.90;62.70
1614;DHT22;800;48.824;9.346;2022-12-07T05:10:54;9.00;62.30
1614;DHT22;800;48.824;9.346;2022-12-07T05:13:19;9.10;61.80
1614;DHT22;800;48.824;9.346;2022-12-07T05:15:47;9.30;61.30
1614;DHT22;800;48.824;9.346;2022-12-07T05:18:12;9.30;60.60
1614;DHT22;800;48.824;9.346;2022-12-07T05:20:39;9.40;60.20
1614;DHT22;800;48.824;9.346;2022-12-07T05:23:05;9.40;59.70
1614;DHT22;800;48.824;9.346;2022-12-07T05:25:30;9.40;59.60
1614;DHT22;800;48.824;9.346;2022-12-07T05:27:56;9.40;59.50
1614;DHT22;800;48.824;9.346;2022-12-07T05:30:23;9.40;59.40
1614;DHT22;800;48.824;9.346;2022-12-07T05:32:48;9.40;59.30
1614;DHT22;800;48.824;9.346;2022-12-07T05:35:14;9.40;59.20
1614;DHT22;800;48.824;9.346;2022-12-07T05:37:40;9.40;59.20
1614;DHT22;800;48.824;9.346;2022-12-07T05:40:06;9.40;59.10
1614;DHT22;800;48.824;9.346;2022-12-07T05:42:32;9.30;58.90
1614;DHT22;800;48.824;9.346;2022-12-07T05:44:57;9.30;59.10
1614;DHT22;800;48.824;9.346;2022-12-07T05:47:23;9.30;59.10
1614;DHT22;800;48.824;9.346;2022-12-07T05:49:48;9.30;59.30
1614;DHT22;800;48.824;9.346;2022-12-07T05:52:14;9.30;59.30
1614;DHT22;800;48.824;9.346;2022-12-07T05:54:40;9.40;59.30
1614;DHT22;800;48.824;9.346;2022-12-07T05:57:05;9.40;59.30
1614;DHT22;800;48.824;9.346;2022-12-07T05:59:31;9.40;59.20
1614;DHT22;800;48.824;9.346;2022-12-07T06:01:59;9.30;59.10
1614;DHT22;800;48.824;9.346;2022-12-07T06:04:27;9.30;59.20
1614;DHT22;800;48.824;9.346;2022-12-07T06:06:53;9.40;59.30
1614;DHT22;800;48.824;9.346;2022-12-07T06:09:20;9.30;59.30
1614;DHT22;800;48.824;9.346;2022-12-07T06:11:46;9.20;59.40
1614;DHT22;800;48.824;9.346;2022-12-07T06:14:30;9.20;59.70
1614;DHT22;800;48.824;9.346;2022-12-07T06:16:55;9.20;59.80
1614;DHT22;800;48.824;9.346;2022-12-07T06:19:21;9.20;59.80
1614;DHT22;800;48.824;9.346;2022-12-07T06:21:47;9.20;59.70
1614;DHT22;800;48.824;9.346;2022-12-07T06:24:13;9.30;60.20
1614;DHT22;800;48.824;9.346;2022-12-07T06:26:39;9.50;63.20
1614;DHT22;800;48.824;9.346;2022-12-07T06:29:05;9.80;64.30
1614;DHT22;800;48.824;9.346;2022-12-07T06:31:31;10.10;62.60
1614;DHT22;800;48.824;9.346;2022-12-07T06:34:01;10.40;61.10
1614;DHT22;800;48.824;9.346;2022-12-07T06:36:28;10.60;59.50
1614;DHT22;800;48.824;9.346;2022-12-07T06:38:53;10.80;59.00
1614;DHT22;800;48.824;9.346;2022-12-07T06:41:19;11.00;58.40
1614;DHT22;800;48.824;9.346;2022-12-07T06:43:44;11.10;57.90
1614;DHT22;800;48.824;9.346;2022-12-07T06:46:10;11.20;57.20
1614;DHT22;800;48.824;9.346;2022-12-07T06:48:36;11.30;56.60
1614;DHT22;800;48.824;9.346;2022-12-07T06:51:01;11.30;55.50
1614;DHT22;800;48.824;9.346;2022-12-07T06:53:27;11.30;54.90
1614;DHT22;800;48.824;9.346;2022-12-07T06:55:52;11.30;54.70
1614;DHT22;800;48.824;9.346;2022-12-07T06:58:18;11.30;54.80
1614;DHT22;800;48.824;9.346;2022-12-07T07:00:44;11.30;54.70
1614;DHT22;800;48.824;9.346;2022-12-07T07:03:10;11.30;54.80
1614;DHT22;800;48.824;9.346;2022-12-07T07:05:36;11.30;55.10
1614;DHT22;800;48.824;9.346;2022-12-07T07:08:02;11.40;54.80
1614;DHT22;800;48.824;9.346;2022-12-07T07:10:28;11.40;54.30
1614;DHT22;800;48.824;9.346;2022-12-07T07:12:53;11.40;54.70
1614;DHT22;800;48.824;9.346;2022-12-07T07:15:19;11.40;54.60
1614;DHT22;800;48.824;9.346;2022-12-07T07:17:44;11.40;54.80
1614;DHT22;800;48.824;9.346;2022-12-07T07:20:11;11.50;54.90
1614;DHT22;800;48.824;9.346;2022-12-07T07:22:36;11.50;54.80
1614;DHT22;800;48.824;9.346;2022-12-07T07:25:02;11.60;54.50
1614;DHT22;800;48.824;9.346;2022-12-07T07:27:28;11.60;54.30
1614;DHT22;800;48.824;9.346;2022-12-07T07:29:53;11.50;53.70
1614;DHT22;800;48.824;9.346;2022-12-07T07:32:19;11.50;54.10
1614;DHT22;800;48.824;9.346;2022-12-07T07:34:44;11.60;54.20
1614;DHT22;800;48.824;9.346;2022-12-07T07:37:10;11.60;54.40
1614;DHT22;800;48.824;9.346;2022-12-07T07:39:38;11.70;54.10
1614;DHT22;800;48.824;9.346;2022-12-07T07:42:04;11.70;53.90
1614;DHT22;800;48.824;9.346;2022-12-07T07:44:29;11.80;54.20
1614;DHT22;800;48.824;9.346;2022-12-07T07:46:55;11.80;54.00
1614;DHT22;800;48.824;9.346;2022-12-07T07:49:20;11.90;54.10
1614;DHT22;800;48.824;9.346;2022-12-07T07:51:46;11.90;53.50
1614;DHT22;800;48.824;9.346;2022-12-07T07:54:11;11.90;53.60
1614;DHT22;800;48.824;9.346;2022-12-07T07:56:37;12.00;53.60
1614;DHT22;800;48.824;9.346;2022-12-07T07:59:02;12.00;53.00
1614;DHT22;800;48.824;9.346;2022-12-07T08:01:28;11.90;53.00
1614;DHT22;800;48.824;9.346;2022-12-07T08:03:54;11.90;53.30
1614;DHT22;800;48.824;9.346;2022-12-07T08:06:19;11.80;53.00
1614;DHT22;800;48.824;9.346;2022-12-07T08:08:45;11.80;53.40
1614;DHT22;800;48.824;9.346;2022-12-07T08:11:10;11.80;53.40
1614;DHT22;800;48.824;9.346;2022-12-07T08:13:36;11.70;53.20
1614;DHT22;800;48.824;9.346;2022-12-07T08:16:07;11.70;52.90
1614;DHT22;800;48.824;9.346;2022-12-07T08:18:37;11.70;53.40
1614;DHT22;800;48.824;9.346;2022-12-07T08:21:04;11.70;53.60
1614;DHT22;800;48.824;9.346;2022-12-07T08:23:30;11.70;53.60
1614;DHT22;800;48.824;9.346;2022-12-07T08:26:04;11.70;53.80
1614;DHT22;800;48.824;9.346;2022-12-07T08:28:30;11.80;53.70
1614;DHT22;800;48.824;9.346;2022-12-07T08:31:00;11.90;53.90
1614;DHT22;800;48.824;9.346;2022-12-07T08:33:26;11.90;53.50
1614;DHT22;800;48.824;9.346;2022-12-07T08:35:51;12.00;53.40
1614;DHT22;800;48.824;9.346;2022-12-07T08:38:17;12.00;52.90
1614;DHT22;800;48.824;9.346;2022-12-07T08:40:42;12.10;52.80
1614;DHT22;800;48.824;9.346;2022-12-07T08:43:08;12.10;52.50
1614;DHT22;800;48.824;9.346;2022-12-07T08:45:33;12.10;52.80
1614;DHT22;800;48.824;9.346;2022-12-07T08:48:11;12.10;52.80
1614;DHT22;800;48.824;9.346;2022-12-07T08:50:38;12.20;52.70
1614;DHT22;800;48.824;9.346;2022-12-07T08:53:04;12.20;52.10
1614;DHT22;800;48.824;9.346;2022-12-07T08:55:31;12.20;52.10
1614;DHT22;800;48.824;9.346;2022-12-07T08:58:02;12.30;51.80
1614;DHT22;800;48.824;9.346;2022-12-07T09:00:28;12.30;51.30
1614;DHT22;800;48.824;9.346;2022-12-07T09:02:54;12.30;51.40
1614;DHT22;800;48.824;9.346;2022-12-07T09:05:20;12.30;51.00
1614;DHT22;800;48.824;9.346;2022-12-07T09:07:48;12.30;50.70
1614;DHT22;800;48.824;9.346;2022-12-07T09:10:15;12.40;50.60
1614;DHT22;800;48.824;9.346;2022-12-07T09:12:40;12.40;50.40
1614;DHT22;800;48.824;9.346;2022-12-07T09:15:06;12.40;49.20
1614;DHT22;800;48.824;9.346;2022-12-07T09:17:33;12.30;48.70
1614;DHT22;800;48.824;9.346;2022-12-07T09:19:59;12.20;48.60
1614;DHT22;800;48.824;9.346;2022-12-07T09:22:31;12.10;48.70
1614;DHT22;800;48.824;9.346;2022-12-07T09:24:58;12.00;49.20
1614;DHT22;800;48.824;9.346;2022-12-07T09:27:28;11.90;49.30
1614;DHT22;800;48.824;9.346;2022-12-07T09:29:53;11.90;49.50
1614;DHT22;800;48.824;9.346;2022-12-07T09:32:19;11.80;49.90
1614;DHT22;800;48.824;9.346;2022-12-07T09:34:45;11.80;49.80
1614;DHT22;800;48.824;9.346;2022-12-07T09:37:10;11.80;49.80
1614;DHT22;800;48.824;9.346;2022-12-07T09:39:40;11.70;49.70
1614;DHT22;800;48.824;9.346;2022-12-07T09:42:06;11.70;49.70
1614;DHT22;800;48.824;9.346;2022-12-07T09:44:34;11.70;49.80
1614;DHT22;800;48.824;9.346;2022-12-07T09:47:00;11.70;49.30
1614;DHT22;800;48.824;9.346;2022-12-07T09:49:29;11.60;48.60
1614;DHT22;800;48.824;9.346;2022-12-07T09:52:03;11.40;48.60
1614;DHT22;800;48.824;9.346;2022-12-07T09:54:30;11.50;52.10
1614;DHT22;800;48.824;9.346;2022-12-07T09:56:56;11.70;49.80
1614;DHT22;800;48.824;9.346;2022-12-07T09:59:22;11.80;48.70
1614;DHT22;800;48.824;9.346;2022-12-07T10:01:49;11.80;48.10
1614;DHT22;800;48.824;9.346;2022-12-07T10:04:24;11.70;47.80
1614;DHT22;800;48.824;9.346;2022-12-07T10:06:50;11.50;48.40
1614;DHT22;800;48.824;9.346;2022-12-07T10:09:19;11.50;48.30
1614;DHT22;800;48.824;9.346;2022-12-07T10:14:29;11.60;48.60
1614;DHT22;800;48.824;9.346;2022-12-07T10:16:54;11.60;48.70
1614;DHT22;800;48.824;9.346;2022-12-07T10:19:31;11.70;48.90
1614;DHT22;800;48.824;9.346;2022-12-07T10:22:13;11.60;49.30
1614;DHT22;800;48.824;9.346;2022-12-07T10:24:40;11.30;49.40
1614;DHT22;800;48.824;9.346;2022-12-07T10:27:29;11.10;49.70
1614;DHT22;800;48.824;9.346;2022-12-07T10:29:57;11.30;49.90
1614;DHT22;800;48.824;9.346;2022-12-07T10:32:34;11.40;49.70
1614;DHT22;800;48.824;9.346;2022-12-07T10:35:26;11.30;50.20
1614;DHT22;800;48.824;9.346;2022-12-07T10:37:53;11.30;50.20
1614;DHT22;800;48.824;9.346;2022-12-07T10:40:34;11.30;49.80
1614;DHT22;800;48.824;9.346;2022-12-07T10:43:01;11.10;50.00
1614;DHT22;800;48.824;9.346;2022-12-07T10:45:27;11.00;50.30
1614;DHT22;800;48.824;9.346;2022-12-07T10:53:50;10.70;51.30
1614;DHT22;800;48.824;9.346;2022-12-07T11:01:54;10.80;51.10
1614;DHT22;800;48.824;9.346;2022-12-07T11:10:08;11.00;51.00
1614;DHT22;800;48.824;9.346;2022-12-07T11:20:59;11.20;51.40
1614;DHT22;800;48.824;9.346;2022-12-07T11:29:28;11.40;51.30
1614;DHT22;800;48.824;9.346;2022-12-07T11:37:18;11.30;51.80
1614;DHT22;800;48.824;9.346;2022-12-07T11:40:20;11.30;52.30
1614;DHT22;800;48.824;9.346;2022-12-07T11:42:59;11.30;52.40
1614;DHT22;800;48.824;9.346;2022-12-07T11:45:30;11.20;52.40
1614;DHT22;800;48.824;9.346;2022-12-07T11:48:05;11.30;52.50
1614;DHT22;800;48.824;9.346;2022-12-07T11:50:48;11.50;52.80
1614;DHT22;800;48.824;9.346;2022-12-07T11:53:25;11.40;53.60
1614;DHT22;800;48.824;9.346;2022-12-07T12:03:46;10.90;55.30
1614;DHT22;800;48.824;9.346;2022-12-07T12:06:12;11.10;55.30
1614;DHT22;800;48.824;9.346;2022-12-07T12:09:01;11.20;55.10
1614;DHT22;800;48.824;9.346;2022-12-07T12:14:29;10.70;54.90
1614;DHT22;800;48.824;9.346;2022-12-07T12:17:11;10.90;55.30
1614;DHT22;800;48.824;9.346;2022-12-07T12:22:39;10.80;54.90
1614;DHT22;800;48.824;9.346;2022-12-07T12:25:21;10.70;55.30
1614;DHT22;800;48.824;9.346;2022-12-07T12:27:49;10.80;55.20
1614;DHT22;800;48.824;9.346;2022-12-07T12:32:50;10.70;55.40
1614;DHT22;800;48.824;9.346;2022-12-07T12:37:54;10.60;55.60
1614;DHT22;800;48.824;9.346;2022-12-07T12:42:48;10.70;55.60
1614;DHT22;800;48.824;9.346;2022-12-07T12:45:29;10.80;55.50
1614;DHT22;800;48.824;9.346;2022-12-07T12:50:37;10.80;55.50
1614;DHT22;800;48.824;9.346;2022-12-07T12:53:24;10.80;55.20
1614;DHT22;800;48.824;9.346;2022-12-07T13:01:48;10.80;55.10
1614;DHT22;800;48.824;9.346;2022-12-07T13:04:25;10.90;55.00
1614;DHT22;800;48.824;9.346;2022-12-07T13:06:52;10.90;54.90
1614;DHT22;800;48.824;9.346;2022-12-07T13:09:29;10.80;54.90
1614;DHT22;800;48.824;9.346;2022-12-07T13:12:03;10.70;54.90
1614;DHT22;800;48.824;9.346;2022-12-07T13:20:07;10.60;55.40
1614;DHT22;800;48.824;9.346;2022-12-07T13:25:09;10.60;55.60
1614;DHT22;800;48.824;9.346;2022-12-07T13:27:39;10.60;55.70
1614;DHT22;800;48.824;9.346;2022-12-07T13:30:15;10.70;55.70
1614;DHT22;800;48.824;9.346;2022-12-07T13:32:41;10.60;55.50
1614;DHT22;800;48.824;9.346;2022-12-07T13:35:34;10.70;55.70
1614;DHT22;800;48.824;9.346;2022-12-07T13:38:15;10.80;55.30
1614;DHT22;800;48.824;9.346;2022-12-07T13:40:42;10.70;55.40
1614;DHT22;800;48.824;9.346;2022-12-07T13:43:15;10.70;55.40
1614;DHT22;800;48.824;9.346;2022-12-07T13:45:42;10.70;55.40
1614;DHT22;800;48.824;9.346;2022-12-07T13:51:02;10.80;55.10
1614;DHT22;800;48.824;9.346;2022-12-07T13:53:29;10.80;55.20
1614;DHT22;800;48.824;9.346;2022-12-07T13:55:57;10.80;55.20
1614;DHT22;800;48.824;9.346;2022-12-07T13:58:23;10.80;55.40
1614;DHT22;800;48.824;9.346;2022-12-07T14:00:49;10.80;55.20
1614;DHT22;800;48.824;9.346;2022-12-07T14:05:42;10.70;55.40
1614;DHT22;800;48.824;9.346;2022-12-07T14:15:54;10.80;55.30
1614;DHT22;800;48.824;9.346;2022-12-07T14:23:37;10.80;55.20
1614;DHT22;800;48.824;9.346;2022-12-07T14:26:21;10.80;54.90
1614;DHT22;800;48.824;9.346;2022-12-07T14:28:47;10.90;54.80
1614;DHT22;800;48.824;9.346;2022-12-07T14:31:15;11.00;54.60
1614;DHT22;800;48.824;9.346;2022-12-07T14:33:42;11.10;54.50
1614;DHT22;800;48.824;9.346;2022-12-07T14:36:12;11.20;54.50
1614;DHT22;800;48.824;9.346;2022-12-07T14:38:38;11.20;54.50
1614;DHT22;800;48.824;9.346;2022-12-07T14:41:05;11.20;54.50
1614;DHT22;800;48.824;9.346;2022-12-07T14:43:50;11.10;54.60
1614;DHT22;800;48.824;9.346;2022-12-07T14:46:15;11.20;54.80
1614;DHT22;800;48.824;9.346;2022-12-07T14:48:41;11.20;54.70
1614;DHT22;800;48.824;9.346;2022-12-07T14:51:09;11.20;54.60
1614;DHT22;800;48.824;9.346;2022-12-07T14:53:39;11.20;54.60
1614;DHT22;800;48.824;9.346;2022-12-07T14:56:06;11.20;54.50
1614;DHT22;800;48.824;9.346;2022-12-07T14:58:31;11.20;54.40
1614;DHT22;800;48.824;9.346;2022-12-07T15:00:58;11.10;54.70
1614;DHT22;800;48.824;9.346;2022-12-07T15:03:23;11.10;54.90
1614;DHT22;800;48.824;9.346;2022-12-07T15:05:49;11.00;54.80
1614;DHT22;800;48.824;9.346;2022-12-07T15:08:14;11.10;54.70
1614;DHT22;800;48.824;9.346;2022-12-07T15:10:40;11.10;54.50
1614;DHT22;800;48.824;9.346;2022-12-07T15:13:06;11.10;54.60
1614;DHT22;800;48.824;9.346;2022-12-07T15:16:01;11.10;54.60
1614;DHT22;800;48.824;9.346;2022-12-07T15:18:26;11.10;54.60
1614;DHT22;800;48.824;9.346;2022-12-07T15:20:52;11.20;54.70
1614;DHT22;800;48.824;9.346;2022-12-07T15:23:17;11.20;54.70
1614;DHT22;800;48.824;9.346;2022-12-07T15:25:45;11.20;54.60
1614;DHT22;800;48.824;9.346;2022-12-07T15:28:11;11.10;54.80
1614;DHT22;800;48.824;9.346;2022-12-07T15:30:37;11.00;54.90
1614;DHT22;800;48.824;9.346;2022-12-07T15:33:03;11.00;55.30
1614;DHT22;800;48.824;9.346;2022-12-07T15:35:29;10.90;55.40
1614;DHT22;800;48.824;9.346;2022-12-07T15:37:54;10.90;55.50
1614;DHT22;800;48.824;9.346;2022-12-07T15:40:20;10.80;55.50
1614;DHT22;800;48.824;9.346;2022-12-07T15:42:46;10.80;55.80
1614;DHT22;800;48.824;9.346;2022-12-07T15:45:12;10.60;55.80
1614;DHT22;800;48.824;9.346;2022-12-07T15:47:41;10.40;56.00
1614;DHT22;800;48.824;9.346;2022-12-07T15:50:10;10.30;56.10
1614;DHT22;800;48.824;9.346;2022-12-07T15:52:36;10.40;56.10
1614;DHT22;800;48.824;9.346;2022-12-07T15:55:02;10.50;56.00
1614;DHT22;800;48.824;9.346;2022-12-07T15:57:29;10.40;56.00
1614;DHT22;800;48.824;9.346;2022-12-07T15:59:55;10.30;56.30
1614;DHT22;800;48.824;9.346;2022-12-07T16:02:20;10.20;56.60
1614;DHT22;800;48.824;9.346;2022-12-07T16:04:47;10.10;56.90
1614;DHT22;800;48.824;9.346;2022-12-07T16:07:13;10.10;57.20
1614;DHT22;800;48.824;9.346;2022-12-07T16:09:41;10.10;57.10
1614;DHT22;800;48.824;9.346;2022-12-07T16:12:07;10.20;57.10
1614;DHT22;800;48.824;9.346;2022-12-07T16:14:33;10.20;56.80
1614;DHT22;800;48.824;9.346;2022-12-07T16:16:59;10.20;56.80
1614;DHT22;800;48.824;9.346;2022-12-07T16:19:25;10.20;56.70
1614;DHT22;800;48.824;9.346;2022-12-07T16:21:50;10.30;56.50
1614;DHT22;800;48.824;9.346;2022-12-07T16:24:16;10.30;56.60
1614;DHT22;800;48.824;9.346;2022-12-07T16:26:43;10.40;56.40
1614;DHT22;800;48.824;9.346;2022-12-07T16:29:11;10.40;56.30
1614;DHT22;800;48.824;9.346;2022-12-07T16:31:37;10.60;56.20
1614;DHT22;800;48.824;9.346;2022-12-07T16:34:03;10.60;56.00
1614;DHT22;800;48.824;9.346;2022-12-07T16:36:28;10.60;55.90
1614;DHT22;800;48.824;9.346;2022-12-07T16:38:54;10.50;56.00
1614;DHT22;800;48.824;9.346;2022-12-07T16:41:20;10.50;56.10
1614;DHT22;800;48.824;9.346;2022-12-07T16:43:46;10.50;56.00
1614;DHT22;800;48.824;9.346;2022-12-07T16:46:11;10.50;56.20
1614;DHT22;800;48.824;9.346;2022-12-07T16:48:39;10.50;56.00
1614;DHT22;800;48.824;9.346;2022-12-07T16:51:07;10.60;55.80
1614;DHT22;800;48.824;9.346;2022-12-07T16:53:34;10.60;55.70
1614;DHT22;800;48.824;9.346;2022-12-07T16:56:00;10.60;55.60
1614;DHT22;800;48.824;9.346;2022-12-07T16:58:26;10.60;55.50
1614;DHT22;800;48.824;9.346;2022-12-07T17:00:51;10.70;55.40
1614;DHT22;800;48.824;9.346;2022-12-07T17:03:17;10.70;55.40
1614;DHT22;800;48.824;9.346;2022-12-07T17:05:44;10.60;55.10
1614;DHT22;800;48.824;9.346;2022-12-07T17:08:11;10.50;55.10
1614;DHT22;800;48.824;9.346;2022-12-07T17:10:39;10.50;55.00
1614;DHT22;800;48.824;9.346;2022-12-07T17:13:06;10.50;54.90
1614;DHT22;800;48.824;9.346;2022-12-07T17:15:57;10.50;54.70
1614;DHT22;800;48.824;9.346;2022-12-07T17:18:22;10.50;54.50
1614;DHT22;800;48.824;9.346;2022-12-07T17:20:48;10.50;54.30
1614;DHT22;800;48.824;9.346;2022-12-07T17:23:14;10.50;54.10
1614;DHT22;800;48.824;9.346;2022-12-07T17:25:39;10.50;54.10
1614;DHT22;800;48.824;9.346;2022-12-07T17:28:05;10.50;54.10
1614;DHT22;800;48.824;9.346;2022-12-07T17:30:30;10.50;54.10
1614;DHT22;800;48.824;9.346;2022-12-07T17:32:56;10.60;54.10
1614;DHT22;800;48.824;9.346;2022-12-07T17:35:22;10.50;54.10
1614;DHT22;800;48.824;9.346;2022-12-07T17:37:47;10.60;54.80
1614;DHT22;800;48.824;9.346;2022-12-07T17:40:14;10.50;54.20
1614;DHT22;800;48.824;9.346;2022-12-07T17:42:40;10.50;54.20
1614;DHT22;800;48.824;9.346;2022-12-07T17:45:11;10.60;54.30
1614;DHT22;800;48.824;9.346;2022-12-07T17:47:38;10.50;54.10
1614;DHT22;800;48.824;9.346;2022-12-07T17:50:05;10.50;54.20
1614;DHT22;800;48.824;9.346;2022-12-07T17:52:31;10.50;54.30
1614;DHT22;800;48.824;9.346;2022-12-07T17:55:15;10.50;54.40
1614;DHT22;800;48.824;9.346;2022-12-07T17:57:42;10.50;54.60
1614;DHT22;800;48.824;9.346;2022-12-07T18:00:08;10.40;54.70
1614;DHT22;800;48.824;9.346;2022-12-07T18:02:35;10.40;54.80
1614;DHT22;800;48.824;9.346;2022-12-07T18:05:00;10.40;54.70
1614;DHT22;800;48.824;9.346;2022-12-07T18:07:26;10.40;54.70
1614;DHT22;800;48.824;9.346;2022-12-07T18:09:52;10.40;54.60
1614;DHT22;800;48.824;9.346;2022-12-07T18:12:17;10.50;54.70
1614;DHT22;800;48.824;9.346;2022-12-07T18:14:43;10.40;54.60
1614;DHT22;800;48.824;9.346;2022-12-07T18:17:08;10.40;54.80
1614;DHT22;800;48.824;9.346;2022-12-07T18:19:34;10.40;54.80
1614;DHT22;800;48.824;9.346;2022-12-07T18:22:02;10.40;54.80
1614;DHT22;800;48.824;9.346;2022-12-07T18:24:28;10.40;54.80
1614;DHT22;800;48.824;9.346;2022-12-07T18:26:54;10.30;54.80
1614;DHT22;800;48.824;9.346;2022-12-07T18:29:19;10.40;54.90